createdAt,value
2023-11-23T00:02:17.554Z,6.20
2023-11-23T00:07:23.333Z,6.43
2023-11-23T00:12:29.495Z,6.70
2023-11-23T00:17:35.475Z,4.32
2023-11-23T00:22:41.119Z,7.30
2023-11-23T00:27:46.800Z,7.85
2023-11-23T00:32:52.397Z,3.95
2023-11-23T00:37:57.878Z,4.10
2023-11-23T00:43:03.461Z,6.20
2023-11-23T00:48:09.048Z,3.67
2023-11-23T00:53:14.946Z,4.70
2023-11-23T00:58:20.392Z,4.07
2023-11-23T01:03:26.494Z,11.23
2023-11-23T01:08:32.173Z,4.97
2023-11-23T01:13:37.928Z,4.75
2023-11-23T01:18:43.947Z,3.95
2023-11-23T01:23:49.610Z,4.30
2023-11-23T01:28:55.296Z,4.57
2023-11-23T01:34:01.878Z,4.15
2023-11-23T01:39:08.984Z,5.10
2023-11-23T01:44:14.501Z,4.90
2023-11-23T01:49:21.856Z,4.32
2023-11-23T01:54:27.833Z,4.70
2023-11-23T01:59:33.882Z,4.88
2023-11-23T02:04:39.973Z,5.28
2023-11-23T02:09:45.726Z,14.27
2023-11-23T02:14:55.154Z,4.85
2023-11-23T02:20:00.965Z,6.40
2023-11-23T02:25:08.560Z,4.03
2023-11-23T02:30:14.816Z,4.10
2023-11-23T02:35:21.199Z,4.90
2023-11-23T02:40:27.184Z,5.40
2023-11-23T02:45:32.808Z,7.85
2023-11-23T02:50:38.474Z,7.93
2023-11-23T02:55:44.062Z,7.13
2023-11-23T03:00:55.612Z,9.75
2023-11-23T03:06:02.236Z,10.15
2023-11-23T03:11:08.442Z,7.45
2023-11-23T03:16:14.251Z,10.68
2023-11-23T03:21:21.122Z,7.57
2023-11-23T03:26:26.808Z,13.20
2023-11-23T03:31:32.803Z,10.25
2023-11-23T03:36:39.456Z,6.82
2023-11-23T03:41:44.989Z,10.65
2023-11-23T03:46:50.750Z,8.23
2023-11-23T03:51:56.414Z,8.45
2023-11-23T03:57:02.713Z,8.68
2023-11-23T04:02:08.938Z,8.85
2023-11-23T04:07:14.313Z,7.13
2023-11-23T04:12:19.457Z,8.05
2023-11-23T04:17:25.110Z,8.95
2023-11-23T04:22:30.731Z,11.10
2023-11-23T04:27:36.165Z,9.45
2023-11-23T04:32:41.335Z,11.63
2023-11-23T04:37:46.941Z,11.23
2023-11-23T04:42:52.441Z,14.77
2023-11-23T04:47:56.785Z,10.27
2023-11-23T04:53:01.083Z,12.05
2023-11-23T04:58:05.348Z,9.23
2023-11-23T05:03:10.184Z,10.68
2023-11-23T05:08:17.389Z,8.73
2023-11-23T05:13:21.681Z,11.55
2023-11-23T05:18:26.563Z,10.43
2023-11-23T05:23:33.873Z,13.30
2023-11-23T05:28:39.295Z,10.38
2023-11-23T05:33:44.414Z,8.75
2023-11-23T05:38:48.909Z,11.27
2023-11-23T05:44:00.536Z,11.50
2023-11-23T05:49:05.573Z,8.30
2023-11-23T05:54:10.560Z,7.47
2023-11-23T05:59:25.019Z,12.15
2023-11-23T06:04:31.819Z,8.43
2023-11-23T06:09:41.105Z,9.30
2023-11-23T06:14:45.325Z,6.35
2023-11-23T06:19:50.117Z,7.03
2023-11-23T06:24:54.834Z,6.80
2023-11-23T06:29:59.413Z,6.47
2023-11-23T06:35:03.666Z,5.65
2023-11-23T06:40:08.680Z,6.22
2023-11-23T06:45:15.413Z,6.95
2023-11-23T06:50:22.638Z,4.97
2023-11-23T06:55:26.921Z,5.82
2023-11-23T07:00:31.291Z,3.70
2023-11-23T07:05:35.438Z,3.25
2023-11-23T07:10:42.860Z,4.45
2023-11-23T07:15:48.537Z,3.88
2023-11-23T07:20:55.124Z,3.35
2023-11-23T07:25:59.430Z,3.35
2023-11-23T07:31:03.553Z,3.72
2023-11-23T07:36:08.465Z,3.63
2023-11-23T07:41:13.291Z,3.47
2023-11-23T07:46:17.549Z,3.88
2023-11-23T07:51:22.039Z,4.22
2023-11-23T07:56:26.917Z,2.65
2023-11-23T08:01:31.172Z,3.05
2023-11-23T08:06:35.495Z,2.45
2023-11-23T08:11:39.735Z,2.45
2023-11-23T08:16:43.953Z,3.67
2023-11-23T08:21:50.596Z,3.72
2023-11-23T08:26:55.223Z,2.63
2023-11-23T08:31:59.967Z,4.03
2023-11-23T08:37:04.855Z,3.42
2023-11-23T08:42:09.571Z,1.90
2023-11-23T08:47:16.850Z,2.08
2023-11-23T08:52:26.852Z,2.63
2023-11-23T08:57:34.025Z,2.60
2023-11-23T09:02:42.148Z,2.05
2023-11-23T09:07:46.413Z,9.38
2023-11-23T09:12:51.178Z,2.42
2023-11-23T09:18:00.726Z,2.05
2023-11-23T09:28:15.148Z,2.00
2023-11-23T09:33:21.276Z,3.17
2023-11-23T09:38:26.831Z,2.97
2023-11-23T09:43:33.930Z,2.05
2023-11-23T09:48:41.002Z,3.00
2023-11-23T09:53:45.646Z,2.47
2023-11-23T09:58:50.561Z,1.70
2023-11-23T10:03:58.117Z,3.72
2023-11-23T10:09:02.522Z,2.05
2023-11-23T10:14:06.901Z,2.63
2023-11-23T10:19:22.812Z,2.95
2023-11-23T10:24:28.036Z,2.65
2023-11-23T10:29:34.223Z,2.80
2023-11-23T10:34:43.600Z,2.85
2023-11-23T10:39:48.128Z,1.77
2023-11-23T10:44:55.119Z,2.88
2023-11-23T10:50:02.099Z,2.95
2023-11-23T10:55:07.883Z,2.60
2023-11-23T11:00:26.938Z,5.03
2023-11-23T11:05:36.623Z,2.72
2023-11-23T11:10:43.836Z,3.45
2023-11-23T11:15:57.864Z,3.80
2023-11-23T11:21:15.628Z,3.97
2023-11-23T11:26:26.029Z,3.30
2023-11-23T11:31:38.295Z,3.55
2023-11-23T11:36:43.585Z,4.13
2023-11-23T11:41:49.285Z,3.95
2023-11-23T11:46:54.281Z,4.45
2023-11-23T11:51:58.888Z,3.28
2023-11-23T11:57:04.435Z,3.95
2023-11-23T12:02:11.806Z,3.40
2023-11-23T12:07:19.091Z,3.72
2023-11-23T12:12:23.749Z,3.00
2023-11-23T12:17:28.087Z,4.53
2023-11-23T12:22:32.781Z,9.15
2023-11-23T12:27:39.841Z,3.50
2023-11-23T12:32:44.245Z,3.97
2023-11-23T12:37:48.627Z,4.55
2023-11-23T12:42:52.884Z,3.72
2023-11-23T12:47:57.160Z,3.88
2023-11-23T12:53:13.581Z,3.47
2023-11-23T12:58:20.517Z,4.35
2023-11-23T13:03:25.218Z,4.43
2023-11-23T13:08:29.528Z,4.13
2023-11-23T13:13:33.947Z,4.30
2023-11-23T13:18:53.852Z,7.82
2023-11-23T13:24:02.457Z,6.97
2023-11-23T13:29:07.996Z,6.85
2023-11-23T13:34:12.391Z,7.88
2023-11-23T13:39:23.585Z,6.22
2023-11-23T13:44:29.105Z,5.32
2023-11-23T13:49:34.697Z,3.75
2023-11-23T13:54:40.437Z,4.20
2023-11-23T13:59:46.200Z,5.13
2023-11-23T14:04:51.791Z,5.15
2023-11-23T14:09:57.196Z,3.40
2023-11-23T14:15:04.934Z,5.22
2023-11-23T14:20:14.229Z,4.82
2023-11-23T14:25:22.336Z,3.53
2023-11-23T14:30:29.204Z,4.00
2023-11-23T14:35:34.770Z,3.80
2023-11-23T14:40:40.282Z,4.63
2023-11-23T14:45:46.762Z,4.18
2023-11-23T14:50:52.522Z,3.78
2023-11-23T14:55:59.448Z,3.50
2023-11-23T15:01:05.035Z,4.55
2023-11-23T15:06:10.797Z,4.30
2023-11-23T15:11:16.703Z,3.50
2023-11-23T15:16:22.463Z,4.65
2023-11-23T15:21:30.232Z,3.33
2023-11-23T15:26:36.054Z,3.50
2023-11-23T15:31:42.149Z,4.22
2023-11-23T15:36:47.714Z,3.88
2023-11-23T15:41:53.230Z,4.32
2023-11-23T15:46:58.729Z,6.35
2023-11-23T15:52:04.687Z,3.50
2023-11-23T15:57:10.886Z,3.97
2023-11-23T16:02:16.411Z,8.32
2023-11-23T16:07:21.865Z,3.65
2023-11-23T16:12:27.224Z,3.15
2023-11-23T16:17:33.585Z,4.40
2023-11-23T16:22:39.078Z,3.10
2023-11-23T16:27:44.803Z,3.35
2023-11-23T16:32:50.512Z,4.75
2023-11-23T16:37:57.359Z,2.47
2023-11-23T16:43:06.109Z,3.35
2023-11-23T16:48:11.867Z,4.25
2023-11-23T16:53:17.770Z,3.75
2023-11-23T16:58:23.166Z,4.47
2023-11-23T17:03:28.963Z,3.97
2023-11-23T17:08:35.521Z,3.55
2023-11-23T17:13:41.227Z,4.93
2023-11-23T17:18:46.862Z,3.28
2023-11-23T17:23:52.492Z,4.30
2023-11-23T17:28:58.673Z,3.55
2023-11-23T17:34:04.289Z,4.63
2023-11-23T17:39:18.769Z,3.78
2023-11-23T17:44:25.729Z,2.85
2023-11-23T17:49:32.607Z,2.97
2023-11-23T17:54:38.264Z,4.35
2023-11-23T17:59:48.177Z,4.47
2023-11-23T18:04:59.842Z,4.18
2023-11-23T18:10:07.386Z,3.78
2023-11-23T18:15:13.732Z,4.13
2023-11-23T18:20:21.240Z,3.65
2023-11-23T18:25:27.167Z,4.93
2023-11-23T18:30:32.963Z,3.78
2023-11-23T18:35:38.523Z,3.47
2023-11-23T18:40:44.341Z,8.90
2023-11-23T18:45:50.721Z,4.68
2023-11-23T18:50:56.394Z,4.60
2023-11-23T18:56:06.779Z,4.68
2023-11-23T19:01:12.692Z,4.68
2023-11-23T19:06:18.759Z,4.25
2023-11-23T19:11:27.465Z,4.32
2023-11-23T19:16:33.133Z,4.10
2023-11-23T19:21:39.068Z,4.38
2023-11-23T19:26:44.984Z,4.70
2023-11-23T19:31:51.401Z,2.63
2023-11-23T19:36:57.542Z,2.50
2023-11-23T19:42:05.451Z,4.10
2023-11-23T19:47:11.979Z,2.78
2023-11-23T19:52:25.723Z,2.20
2023-11-23T19:57:31.204Z,2.63
2023-11-23T20:02:37.994Z,3.25
2023-11-23T20:07:43.694Z,4.22
2023-11-23T20:12:49.876Z,3.42
2023-11-23T20:17:55.474Z,2.42
2023-11-23T20:23:03.012Z,2.40
2023-11-23T20:28:14.050Z,2.03
2023-11-23T20:33:20.632Z,2.67
2023-11-23T20:38:26.419Z,6.65
2023-11-23T20:43:32.096Z,4.45
2023-11-23T20:48:37.996Z,3.08
2023-11-23T20:53:44.376Z,4.65
2023-11-23T20:58:54.975Z,4.22
2023-11-23T21:04:01.019Z,2.28
2023-11-23T21:09:10.075Z,4.07
2023-11-23T21:14:16.128Z,4.13
2023-11-23T21:19:22.082Z,3.25
2023-11-23T21:24:27.759Z,2.42
2023-11-23T21:29:33.347Z,4.28
2023-11-23T21:34:38.940Z,3.65
2023-11-23T21:39:45.034Z,2.80
2023-11-23T21:44:51.344Z,3.55
2023-11-23T21:49:57.432Z,4.82
2023-11-23T21:55:04.520Z,3.15
2023-11-23T22:00:11.050Z,4.47
2023-11-23T22:05:16.615Z,4.85
2023-11-23T22:10:23.762Z,4.45
2023-11-23T22:15:29.379Z,3.20
2023-11-23T22:20:35.329Z,3.38
2023-11-23T22:25:42.978Z,3.05
2023-11-23T22:30:49.065Z,4.00
2023-11-23T22:35:54.874Z,5.50
2023-11-23T22:41:01.141Z,3.75
2023-11-23T22:46:09.459Z,3.65
2023-11-23T22:51:16.382Z,3.20
2023-11-23T22:56:21.883Z,3.35
2023-11-23T23:01:29.400Z,3.10
2023-11-23T23:06:35.026Z,3.35
2023-11-23T23:11:40.837Z,3.33
2023-11-23T23:16:46.650Z,5.25
2023-11-23T23:21:52.963Z,4.22
2023-11-23T23:26:58.592Z,5.07
2023-11-23T23:32:04.365Z,5.85
2023-11-23T23:37:09.930Z,5.53
2023-11-23T23:42:15.460Z,7.57
2023-11-23T23:47:21.003Z,6.35
2023-11-23T23:52:26.635Z,6.93
2023-11-23T23:57:32.129Z,8.00
